Tiempo atmosférico en la estación meteorológica de Talarn, Lleida (799 m.)



Fecha
DESCASC
Temp. máxima en grados centígrados (hora)
DESCASC
Temp. mínima en grados centígrados (hora)
DESCASC
Temp. media en grados centígrados
DESCASC
Racha de viento máxima en m/sg (hora)
DESCASC
Velocidad máxima media en intervalos de 10 minutos(hora)
DESCASC
Precipitaciones diarias en mm
DESCASC
Precipitaciones de 00:00 a 06:00 en mm
DESCASC
Precipitaciones de 06:00 a 12:00 en mm
DESCASC
Precipitaciones de 12:00 a 18:00 en mm
DESCASC
Precipitaciones de 18:00 a 24:00 en mm
DESCASC
22-04-2019 16.3 (15:00) 6.6 (06:40) 11.4 6.39 (06:50) 5.28 (06:50) 4 0 4 0 0
21-04-2019 13.2 (17:40) 6 (06:30) 9.6 8.61 (03:20) 6.39 (03:10) 7.2 6.6 0.6 0 0
20-04-2019 19.6 (14:40) 7.1 (07:20) 13.4 9.44 (14:10) 6.94 (14:20) 0.2 0 0 0 0.2
19-04-2019 19.4 (17:10) 8.9 (05:40) 14.1 9.17 (18:40) 6.11 (18:40) 0 0 0 0 0
18-04-2019 18.5 (14:40) 8.2 (00:00) 13.3 8.89 (14:50) 6.11 (14:50) 0 0 0 0 0
17-04-2019 20.1 (16:40) 5.9 (00:00) 13 6.67 (16:00) 3.89 (16:00) 0 0 0 0 0
16-04-2019 16.9 (17:00) 4.9 (00:00) 10.9 7.5 (01:10) 3.89 (18:30) 2.4 2.2 0.2 0 0
15-04-2019 18.3 (17:10) 7.7 (00:00) 13 9.72 (23:50) 6.39 (23:50) 1.8 0 0 0 1.8
14-04-2019 22.7 (15:30) 4.5 (00:00) 13.6 8.33 (15:00) 4.44 (14:00) 0 0 0 0 0
13-04-2019 21 (15:10) 3.2 (00:00) 12.1 14.17 (17:10) 8.61 (17:20) 0 0 0 0 0
12-04-2019 18.6 (14:40) 4.1 (00:00) 11.4 11.94 (17:20) 6.94 (21:30) 0 0 0 0 0
11-04-2019 14.8 (16:30) 3.6 (00:00) 9.2 9.17 (17:10) 5.56 (17:10) 0 0 0 0 0
10-04-2019 15.1 (14:50) 1.8 (00:00) 8.5 8.89 (18:00) 5.56 (18:00) 0.2 0 0 0.2 0
09-04-2019 16.2 (14:00) 5 (00:00) 10.6 11.11 (15:00) 7.22 (21:30) 4.2 0.2 0 0.2 3.8
08-04-2019 17.1 (16:00) 3.2 (00:00) 10.2 10 (15:40) 6.67 (17:10) 0 0 0 0 0
07-04-2019 14.7 (15:30) 0.6 (00:00) 7.6 8.89 (16:40) 4.72 (16:40) 0.6 0.6 0 0 0
06-04-2019 10.2 (17:20) 2 (00:00) 6.1 11.94 (19:20) 8.06 (19:10) 17.2 6.8 1.6 3 5.8
05-04-2019 10.9 (16:30) 1.9 (00:00) 6.4 8.89 (20:20) 5.28 (20:20) 3.4 0 0 0 3.4
04-04-2019 13.1 (16:50) -2 (-00:0) 5.6 11.67 (15:00) 6.11 (16:40) 0 0 0 0 0
03-04-2019 10.3 (13:10) 3.3 (00:00) 6.8 12.78 (23:00) 10.56 (23:00) 5.6 0.2 1.4 4 0
02-04-2019 18.4 (13:50) 7 (00:00) 12.7 13.89 (14:50) 8.89 (14:50) 0.4 0 0 0.4 0
01-04-2019 18.7 (14:40) 6.7 (00:00) 12.7 9.44 (17:40) 6.39 (17:10) 0 0 0 0 0
31-03-2019 14.6 (14:00) 1.7 (00:00) 8.2 5.83 (15:50) 3.33 (14:00) 0 0 0 0 0
30-03-2019 17.6 (14:50) 2.2 (00:00) 9.9 8.33 (14:50) 5.28 (14:50) 0 0 0 0 0
29-03-2019 15.2 (13:50) 4.1 (00:00) 9.6 7.5 (19:50) 4.44 (18:00) 0 0 0 0 0
28-03-2019 17.9 (15:20) 2.9 (00:00) 10.4 9.44 (14:50) 6.39 (15:20) 0 0 0 0 0
27-03-2019 18.6 (14:00) 1.7 (00:00) 10.2 9.72 (15:40) 5.83 (16:00) 0 0 0 0 0
26-03-2019 17.6 (12:20) 5.9 (00:00) 11.8 12.78 (13:20) 6.94 (13:00) 0 0 0 0 0
25-03-2019 20.6 (14:00) 7.4 (00:00) 14 12.5 (14:50) 9.17 (14:50) 0 0 0 0 0

Gráficas

Temp. máximas Temp. mínimas Temp. medias Precipitaciones Rachas de viento máximas Velocidades máximas media en intervalos de 10 minutos

Datos horarios

Fecha y hora oficial Temperatura (ºC) Velocidad del viento (km/h) Dirección del viento Racha (km/h) Dirección de racha Precipitación (mm) Presión (hPa) Tendencia (hPa) Humedad (%)
2019-04-23 23:00:00 8 2 Noroeste 10 Sudoeste 0 908.8 2.5 97
2019-04-23 22:00:00 8.4 8 Sudoeste 37 Oeste 0.8 908.4 2.9 95
2019-04-23 21:00:00 8.8 25 Noroeste 43 Sudoeste 5.8 907.3 2.1 83
2019-04-23 20:00:00 11.1 21 Sur 47 Sur 1 906.3 0.8 76
2019-04-23 19:00:00 12.6 14 Sudeste 30 Este 0.2 905.5 -0.5 69
2019-04-23 18:00:00 13.9 5 Norte 11 Sur 0 905.2 -1.4 65
2019-04-23 17:00:00 14.8 5 Sudeste 15 Sudeste 0 905.5 -1.3 62
2019-04-23 16:00:00 15.8 6 Sur 15 Sudeste 0 906 -0.9 58
2019-04-23 15:00:00 13.7 3 Norte 10 Sur 0 906.6 -0.3 81
2019-04-23 14:00:00 13.3 3 Norte 10 Sur 0 906.8 0.2 87
2019-04-23 13:00:00 10.4 3 Sur 7 Sur 1.2 906.9 0.8 94
2019-04-23 12:00:00 9.9 2 Sur 8 Sudoeste 1.2 906.9 1 97
2019-04-23 11:00:00 9.7 6 Sur 13 Sur 0.6 906.6 0.9 95
2019-04-23 10:00:00 10 2 Sur 6 Este 0 906.1 0.5 90
2019-04-23 09:00:00 9.7 3 Sur 8 Sudoeste 0 905.9 0.3 87
2019-04-23 08:00:00 9.5 3 Oeste 7 Sudeste 0 905.7 -0.2 87
2019-04-23 07:00:00 9.3 5 Norte 9 Norte 0 905.6 -0.4 86
2019-04-23 06:00:00 8.9 5 Norte 7 Noroeste 0 905.6 -0.6 90
2019-04-23 05:00:00 9.2 6 Norte 9 Norte 0 905.9 -1.1 85
2019-04-23 04:00:00 9.5 3 Sudoeste 8 Sudoeste 0 906 -1.6 83
2019-04-23 03:00:00 10 4 Noroeste 7 Oeste 0 906.2 -2.1 78
2019-04-23 02:00:00 10.6 4 Sudeste 17 Noroeste 0 907 -1.2 75
2019-04-23 01:00:00 10.4 6 Norte 12 Noroeste 0 907.6 -0.4 77
2019-04-23 00:00:00 10.4 3 Nordeste 11 Sudeste 0 908.3 0.4 77
2019-04-22 23:00:00 11 5 Sudeste 19 Noroeste 0 908.2 0.9 73
2019-04-22 22:00:00 11.4 9 Norte 16 Oeste 0 908 0.7 74
2019-04-22 21:00:00 11.7 6 Sudoeste 18 Sudoeste 0 907.9 0.4 72
2019-04-22 20:00:00 12.4 14 Sudoeste 20 Oeste 0 907.3 -0.2 67
2019-04-22 19:00:00 13.3 3 Este 12 Sur 0 907.3 -0.7 62
2019-04-22 18:00:00 14.6 10 Sur 19 Sur 0 907.5 -1.3 61
2019-04-22 17:00:00 15.8 11 Sur 20 Sur 0 907.5 -1.8 56
2019-04-22 16:00:00 15.4 5 Sudeste 22 Sur 0 908 -2 56
2019-04-22 15:00:00 16.3 12 Sur 19 Sur 0 908.8 -1.8 51
2019-04-22 14:00:00 14.2 4 Oeste 16 Sur 0 909.3 -1.7 72
2019-04-22 13:00:00 11.6 10 Sur 16 Sur 0 910 -1.6 88
2019-04-22 12:00:00 9.5 8 Sur 12 Sur 0.8 910.6 -0.6 94
2019-04-22 11:00:00 8.3 7 Norte 14 Noroeste 2.6 911 -0.2 94
2019-04-22 10:00:00 8.1 6 Sur 10 Sur 0 911.6 0.6 92
2019-04-22 09:00:00 8.8 9 Norte 13 Noroeste 0 911.2 0.1 84
2019-04-22 08:00:00 7.7 6 Sudoeste 15 Noroeste 0.4 911.2 -0.8 85
2019-04-22 07:00:00 7.7 14 Norte 23 Norte 0.2 911 -2 80
2019-04-22 06:00:00 7.9 5 Sudoeste 23 Nordeste 0 911.1 -3 76
2019-04-22 05:00:00 7.5 5 Sur 9 Sudoeste 0 912 -3 79
2019-04-22 04:00:00 8.2 3 Sudoeste 10 Noroeste 0 913 -2.7 76
2019-04-22 03:00:00 8.2 7 Oeste 12 Noroeste 0 914.1 -2.4 79
2019-04-22 02:00:00 8.5 4 Sudoeste 7 Sur 0 915 -2.4 81
2019-04-22 01:00:00 9.3 3 Este 18 Norte 0 915.7 -1.6 57
2019-04-22 00:00:00 9.8 4 Sur 6 Sur 0 916.5 -0.7 75
2019-04-21 23:00:00 10.2 3 Oeste 12 Norte 0 917.4 0.7 75
2019-04-21 22:00:00 10.1 9 Noroeste 11 Noroeste 0 917.3 0.2 77
2019-04-21 21:00:00 10.2 2 Noroeste 4 Sur 0 917.2 -0.4 78
2019-04-21 20:00:00 11.2 3 Sur 8 Sur 0 916.7 -1.3 73
2019-04-21 19:00:00 12.3 6 Sur 11 Sur 0 917.1 -1.6 67
2019-04-21 18:00:00 12.6 6 Sudeste 12 Sudoeste 0 917.6 -1.5 60
2019-04-21 17:00:00 12.9 6 Oeste 10 Oeste 0 918 -1.3 57
2019-04-21 16:00:00 11.6 3 Oeste 15 Sudoeste 0 918.7 -1.6 65
2019-04-21 15:00:00 12 12 Sur 16 Sur 0 919.1 -1.6 69
2019-04-21 14:00:00 11.8 5 Sudoeste 8 Sudoeste 0 919.3 -1.3 74
2019-04-21 13:00:00 10.1 3 Sudoeste 11 Sur 0 920.3 -0.5 84
2019-04-21 12:00:00 9.7 5 Sudoeste 12 Sur 0 920.7 -0.7 87
2019-04-21 11:00:00 8.5 5 Norte 15 Nordeste 0 920.6 -1.1 96
2019-04-21 10:00:00 7.2 5 Oeste 15 Nordeste 0 920.8 -1.1 97
2019-04-21 09:00:00 6.8 3 Nordeste 23 Norte 0.2 921.4 -1.1 94
2019-04-21 08:00:00 7.2 17 Norte 27 Nordeste 0.4 921.7 -1.5 85
2019-04-21 07:00:00 6.2 4 Norte 12 Norte 0 921.9 -2.1 98
2019-04-21 06:00:00 6.3 5 Sur 7 Sur 0 922.5 -2.4 97
2019-04-21 05:00:00 6.2 4 Sudoeste 9 Sur 0.2 923.2 -3.1 98
2019-04-21 04:00:00 6.5 9 Sudoeste 31 Nordeste 0.6 924 -2.9 97
2019-04-21 03:00:00 6.5 18 Norte 25 Norte 1.6 924.9 -2.2 93
2019-04-21 02:00:00 6.4 3 Oeste 6 Sur 2.2 926.3 -0.7 95
2019-04-21 01:00:00 7 4 Sudeste 15 Sudoeste 2 926.9 0.8 87
2019-04-21 00:00:00 7.5 5 Noroeste 22 Sudoeste 0.2 927.1 1.6 75
2019-04-20 23:00:00 9.2 15 Sur 31 Sur 0 927 1.7 67
2019-04-20 22:00:00 11.3 9 Sur 17 Sur 0 926.1 0.9 50
2019-04-20 21:00:00 12.2 3 Sudeste 9 Sur 0 925.5 0.3 46
2019-04-20 20:00:00 12.9 6 Sur 17 Sudeste 0 925.3 -0.1 46
2019-04-20 19:00:00 13.8 9 Sur 23 Sur 0 925.2 -0.4 44
2019-04-20 18:00:00 14.8 18 Sur 27 Sur 0 925.2 -0.9 40
2019-04-20 17:00:00 16.1 13 Sur 30 Sur 0 925.4 -1.2 40
2019-04-20 16:00:00 17 15 Sur 32 Sur 0 925.6 -1.3 37
2019-04-20 15:00:00 18.2 17 Sur 34 Sur 0 926.1 -1.2 32
2019-04-20 14:00:00 18.8 18 Sur 30 Sur 0 926.6 -1.1 32
2019-04-20 13:00:00 18.1 12 Sur 21 Sur 0 926.9 -1.1 31
2019-04-20 12:00:00 16.4 4 Sudoeste 15 Sur 0 927.3 -0.9 43
2019-04-20 11:00:00 14.7 8 Sur 15 Sur 0 927.7 -0.5 49
2019-04-20 10:00:00 13 7 Sur 14 Sur 0 928 -0.3 55
2019-04-20 09:00:00 10.8 3 Nordeste 5 Nordeste 0 928.2 -0.2 54
2019-04-20 08:00:00 8.8 4 Sudoeste 9 Norte 0 928.2 -0.6 54
2019-04-20 07:00:00 8.1 2 Oeste 12 Noroeste 0 928.3 -0.6 56
2019-04-20 06:00:00 8.3 2 Oeste 8 Norte 0 928.4 -0.4 53
2019-04-20 05:00:00 8.5 2 Oeste 5 Noroeste 0 928.8 -0.3 52
2019-04-20 04:00:00 9.6 4 Sudoeste 7 Sur 0 928.9 -0.4 47
2019-04-20 03:00:00 10.5 3 Oeste 8 Noroeste 0 928.8 -0.7 42
2019-04-20 02:00:00 9.6 5 Norte 10 Noroeste 0 929.1 -0.6 44
2019-04-20 01:00:00 11 5 Oeste 8 Noroeste 0 929.3 -0.4 38
2019-04-20 00:00:00 10.5 7 Noroeste 14 Sudoeste 0 929.5 0.2 41
2019-04-19 23:00:00 13 10 Oeste 14 Sudoeste 0 929.7 0.9 33
2019-04-19 22:00:00 12.7 9 Oeste 12 Oeste 0 929.7 1.5 36
2019-04-19 21:00:00 13.9 6 Sudoeste 17 Sudoeste 0 929.3 1.5 33
2019-04-19 20:00:00 15.1 7 Sudoeste 31 Sur 0 928.8 1.5 34
2019-04-19 19:00:00 17 18 Sur 33 Sudeste 0 928.2 0.9 30
2019-04-19 18:00:00 17.6 18 Sur 29 Sudeste 0 927.8 0.2 31
2019-04-19 17:00:00 19 18 Sur 26 Sur 0 927.3 -0.2 30
2019-04-19 16:00:00 18.5 10 Sur 17 Sur 0 927.3 0.2 29
2019-04-19 15:00:00 18 8 Sur 19 Sur 0 927.6 0.6 31
2019-04-19 14:00:00 17.2 6 Sur 13 Sur 0 927.5 0.5 33
2019-04-19 13:00:00 16.5 7 Sudoeste 11 Sudoeste 0 927.1 0.3 35
2019-04-19 12:00:00 15.1 5 Sudoeste 10 Sudoeste 0 927 0.6 33
2019-04-19 11:00:00 14.3 3 Sudoeste 7 Sur 0 927 0.9 33
2019-04-19 10:00:00 13.3 3 Sudoeste 6 Sur 0 926.8 1.3 37
2019-04-19 09:00:00 12.2 3 Norte 10 Norte 0 926.4 1.3 47
2019-04-19 08:00:00 11.5 8 Norte 16 Norte 0 926.1 1 41
2019-04-19 07:00:00 10.2 6 Norte 11 Norte 0 925.5 0.4 46
2019-04-19 06:00:00 10.3 2 Sudoeste 9 Norte 0 925.1 0.1 46
2019-04-19 05:00:00 10.6 4 Sudoeste 13 Norte 0 925.1 -0.3 46
2019-04-19 04:00:00 11.5 8 Sur 17 Sur 0 925.1 0.9 44
2019-04-19 03:00:00 12.4 11 Sur 26 Sudeste 0 925 1.3 39
2019-04-19 02:00:00 12.7 16 Sur 23 Sur 0 925.4 2.2 34
2019-04-19 01:00:00 12 4 Noroeste 17 Noroeste 0 924.2 1.3 37
2019-04-19 00:00:00 12.1 6 Sudoeste 24 Sudeste 0 923.7 1.1 37
2019-04-18 23:00:00 13 5 Este 11 Norte 0 923.2 1.4 38
2019-04-18 22:00:00 12.7 3 Sudeste 12 Norte 0 922.9 0.9 45
2019-04-18 21:00:00 13.5 4 Norte 10 Norte 0 922.6 1 46
2019-04-18 20:00:00 13.8 3 Noroeste 13 Sur 0 921.8 -0.4 48
2019-04-18 19:00:00 14.9 7 Sudoeste 16 Sudoeste 0 922 -0.2 45
2019-04-18 18:00:00 15.3 6 Sudoeste 29 Sur 0 921.6 -0.7 48
2019-04-18 17:00:00 15.9 19 Sur 32 Sudeste 0 922.2 -0.6 42
2019-04-18 16:00:00 17.2 15 Sur 26 Sur 0 922.2 -1.8 40
2019-04-18 15:00:00 17.3 15 Sur 32 Sur 0 922.3 -1.6 46
2019-04-18 14:00:00 16.1 11 Sur 26 Norte 0 922.8 -3 51
2019-04-18 13:00:00 14.1 10 Sudoeste 23 Sudoeste 0 924 -0.9 59
2019-04-18 12:00:00 13.6 8 Este 22 Sur 0 923.9 -0.2 55
2019-04-18 11:00:00 14.4 5 Sur 14 Sur 0 925.8 2.1 51
2019-04-18 10:00:00 12.4 5 Oeste 8 Oeste 0 924.9 1.6 64
2019-04-18 09:00:00 10.3 2 Norte 13 Noroeste 0 924.1 0.4 77
2019-04-18 08:00:00 8.8 9 Noroeste 13 Noroeste 0 923.7 -0.6 78
2019-04-18 07:00:00 9.6 4 Sudoeste 14 Noroeste 0 923.3 -0.7 70
2019-04-18 06:00:00 9 9 Norte 15 Este 0 923.7 -0.3 74
2019-04-18 05:00:00 9.5 9 Este 19 Sur 0 924.3 -0.1 70
2019-04-18 04:00:00 9.5 2 Sudoeste 8 Norte 0 924 -0.3 81
2019-04-18 03:00:00 9.8 3 Norte 8 Oeste 0 924 -0.4 79
2019-04-18 02:00:00 10.8 10 Oeste 14 Oeste 0 924.4 0.2 77
2019-04-18 01:00:00 10.2 8 Noroeste 11 Noroeste 0 924.3 0.2 80
2019-04-18 00:00:00 10.8 8 Oeste 10 Oeste 0 924.4 1 77
2019-04-17 23:00:00 10.6 6 Noroeste 15 Sur 0 924.2 1.3 76
2019-04-17 22:00:00 12.1 8 Sur 17 Sudeste 0 924.1 1.5 68
2019-04-17 21:00:00 13.3 6 Sudeste 19 Sudeste 0 923.4 0.9 64
2019-04-17 20:00:00 14.5 14 Sudeste 22 Sudeste 0 922.9 0.2 59
2019-04-17 19:00:00 16.3 13 Sudeste 24 Sudeste 0 922.6 -0.6 52
2019-04-17 18:00:00 17.7 11 Sudeste 18 Sudeste 0 922.5 -1.3 44
2019-04-17 17:00:00 18.6 11 Sur 21 Sudeste 0 922.7 -1.8 41
2019-04-17 16:00:00 19.6 14 Sur 24 Sur 0 923.2 -1.9 38
2019-04-17 15:00:00 18.7 8 Sur 18 Sur 0 923.8 -1.4 43
2019-04-17 14:00:00 16.5 8 Sudeste 16 Sudeste 0 924.5 -0.7 47
2019-04-17 13:00:00 15.6 6 Sur 16 Sur 0 925.1 -0.3 52
2019-04-17 12:00:00 15.5 6 Sudoeste 14 Sudeste 0 925.2 -0.1 47
2019-04-17 11:00:00 14.3 8 Sur 16 Sur 0 925.2 -0.3 57
2019-04-17 10:00:00 12.5 5 Sur 8 Sudoeste 0 925.4 0.1 59
2019-04-17 09:00:00 10.2 4 Sur 11 Norte 0 925.3 -0.2 72
2019-04-17 08:00:00 8.3 3 Sudoeste 8 Sudoeste 0 925.5 -0.4 71
2019-04-17 07:00:00 7.3 3 Sudoeste 4 Sudoeste 0 925.3 -1.1 72
2019-04-17 06:00:00 8.1 4 Sudoeste 9 Norte 0 925.5 -0.9 68
2019-04-17 05:00:00 8 9 Norte 11 Norte 0 925.9 -0.6 69
2019-04-17 04:00:00 8.2 4 Noroeste 11 Norte 0 926.4 -0.3 69
2019-04-17 03:00:00 8.2 4 Noroeste 13 Noroeste 0 926.4 -0.4 70
2019-04-17 02:00:00 8.3 10 Norte 14 Norte 0 926.5 -0.7 69
2019-04-17 01:00:00 8.5 5 Norte 12 Norte 0 926.7 0.1 69
2019-04-17 00:00:00 9 3 Este 10 Norte 0 926.8 0.8 69
2019-04-16 23:00:00 9.9 3 Este 10 Oeste 0 927.2 1.8 68
2019-04-16 22:00:00 11.2 7 Sudeste 17 Este 0 926.6 1.5 64
2019-04-16 21:00:00 12.7 6 Sur 18 Sur 0 926 1 63
2019-04-16 20:00:00 13.4 11 Sudeste 17 Sudeste 0 925.4 0.4 61
2019-04-16 19:00:00 14.7 12 Sur 19 Sur 0 925.1 -0.2 57
2019-04-16 18:00:00 15.2 9 Sur 19 Sur 0 925 -0.8 54
2019-04-16 17:00:00 16.7 11 Sur 18 Sudoeste 0 925 -1.1 52
2019-04-16 16:00:00 14.4 7 Sudeste 23 Sur 0 925.3 -0.8 59
2019-04-16 15:00:00 15.1 10 Sudeste 21 Sur 0 925.8 -0.4 60
2019-04-16 14:00:00 14.9 10 Sur 20 Sur 0 926.1 -0.1 61
2019-04-16 13:00:00 13 7 Sur 14 Sur 0 926.1 0.6 65
2019-04-16 12:00:00 11.4 8 Sur 14 Sur 0 926.2 1 70
2019-04-16 11:00:00 10.1 5 Sudeste 14 Sudeste 0.2 926.2 1.5 74
2019-04-16 10:00:00 9.1 6 Sudoeste 10 Sudoeste 0 925.5 1.5 84
2019-04-16 09:00:00 6.5 2 Noroeste 7 Sudoeste 0 925.2 1.7 97
2019-04-16 08:00:00 6.7 7 Norte 11 Noroeste 0 924.7 1.2 95
2019-04-16 07:00:00 6.5 3 Sudoeste 8 Sudoeste 0 924 0.5 95
2019-04-16 06:00:00 6.2 3 Noroeste 6 Sudoeste 0 923.5 0.5 93
2019-04-16 05:00:00 5.6 4 Oeste 8 Norte 0 923.5 0.6 92
2019-04-16 04:00:00 5.4 5 Norte 8 Nordeste 0 923.5 0.1 93
2019-04-16 03:00:00 6.1 4 Sur 15 Noroeste 0 923 -0.5 83
2019-04-16 02:00:00 5.9 11 Noroeste 27 Nordeste 0 922.9 0.5 88
2019-04-16 01:00:00 6.6 13 Nordeste 26 Nordeste 2.2 923.4 0.8 88
2019-04-16 00:00:00 8 12 Oeste 35 Sudoeste 1.4 923.5 1.7 78
2019-04-15 23:00:00 8.5 5 Sudoeste 33 Oeste 0.2 922.4 0.8 65
2019-04-15 22:00:00 9.4 7 Sudoeste 24 Oeste 0.2 922.6 1.5 64
2019-04-15 21:00:00 10.7 11 Sur 23 Sudeste 0 921.8 0.8 49
2019-04-15 20:00:00 11.8 13 Sudeste 31 Sudeste 0 921.6 0.6 50
2019-04-15 19:00:00 14.1 17 Sur 30 Sudeste 0 921.1 -0.1 49
2019-04-15 18:00:00 15.3 17 Sudeste 28 Sudeste 0 921 -0.8 49
2019-04-15 17:00:00 18.1 19 Sur 31 Sur 0 921 -1.4 48
2019-04-15 16:00:00 17.1 17 Sudeste 24 Sudeste 0 921.2 -1.6 48
2019-04-15 15:00:00 17.3 13 Sudeste 23 Sur 0 921.8 -1.3 47
2019-04-15 14:00:00 16.9 11 Sur 24 Sur 0 922.4 -0.7 48
2019-04-15 13:00:00 15.7 11 Sur 19 Sur 0 922.8 -0.4 52
2019-04-15 12:00:00 15.5 6 Sur 17 Sur 0 923.1 -0.5 52
2019-04-15 11:00:00 14.9 8 Sur 14 Sur 0 923.1 -0.3 52
2019-04-15 10:00:00 12.9 7 Sur 11 Sur 0 923.2 0.2 62
2019-04-15 09:00:00 11.7 4 Sudeste 8 Sur 0 923.6 0.8 62
2019-04-15 08:00:00 9.3 2 Sur 11 Noroeste 0 923.4 0.6 71
2019-04-15 07:00:00 8 5 Nordeste 8 Nordeste 0 923 -0.1 80
2019-04-15 06:00:00 9.5 5 Sudoeste 8 Sudoeste 0 922.8 -0.3 70
2019-04-15 05:00:00 10.2 0 Calma 5 Sudeste 0 922.8 -0.3 72
2019-04-15 04:00:00 10.6 3 Nordeste 8 Nordeste 0 923.1 0.1 67
2019-04-15 03:00:00 10.9 2 Noroeste 11 Noroeste 0 923.1 0.3 63
2019-04-15 02:00:00 12.4 3 Noroeste 12 Oeste 0 923.1 1.1 56
2019-04-15 01:00:00 13 5 Sudoeste 8 Sur 0 923 1.4 55
2019-04-15 00:00:00 13.5 5 Oeste 13 Sudoeste 0 922.8 1.8 54
2019-04-14 23:00:00 14.6 4 Oeste 17 Norte 0 922 1.3 50
2019-04-14 22:00:00 14.1 8 Norte 15 Nordeste 0 921.6 1.3 50
2019-04-14 21:00:00 15.8 5 Noroeste 12 Noroeste 0 921 0.8 44
2019-04-14 20:00:00 17 4 Nordeste 10 Sur 0 920.7 0.8 45
2019-04-14 19:00:00 20 5 Sudeste 12 Este 0 920.3 0.4 32
2019-04-14 18:00:00 19.2 9 Este 15 Sur 0 920.2 -0.3 39
2019-04-14 17:00:00 19.8 12 Sudeste 26 Sudoeste 0 919.9 -0.6 38
2019-04-14 16:00:00 20.8 10 Noroeste 29 Oeste 0 919.9 -0.9 29
2019-04-14 15:00:00 21.5 16 Oeste 30 Sudoeste 0 920.5 -0.5 28
2019-04-14 14:00:00 20 16 Sudeste 24 Sudeste 0 920.5 -0.9 26
2019-04-14 13:00:00 17.7 8 Sur 15 Sur 0 920.8 -0.7 25
2019-04-14 12:00:00 15.7 7 Sur 14 Sur 0 921 -0.4 30
2019-04-14 11:00:00 13.2 5 Sur 12 Sur 0 921.4 0 34
2019-04-14 10:00:00 10.9 4 Sur 8 Sur 0 921.5 0.3 39
2019-04-14 09:00:00 8 4 Sudoeste 8 Norte 0 921.4 0.2 42
2019-04-14 08:00:00 7.1 5 Norte 7 Norte 0 921.4 -0.2 43
2019-04-14 07:00:00 6.1 3 Oeste 9 Norte 0 921.2 -0.7 38
2019-04-14 06:00:00 4.9 4 Noroeste 10 Norte 0 921.2 -0.8 44
2019-04-14 05:00:00 5.5 3 Norte 8 Noroeste 0 921.6 -0.8 42
2019-04-14 04:00:00 7.1 8 Norte 10 Norte 0 921.9 -0.6 34
2019-04-14 03:00:00 8.2 4 Sudeste 6 Oeste 0 922 -0.8 33
2019-04-14 02:00:00 9.5 2 Noroeste 6 Sudeste 0 922.4 -0.4 30
2019-04-14 01:00:00 10 2 Sudoeste 12 Norte 0 922.5 -0.2 28
2019-04-14 00:00:00 10.5 10 Noroeste 15 Noroeste 0 922.8 0.3 28
2019-04-13 23:00:00 11.6 7 Nordeste 18 Norte 0 922.8 0.7 26
2019-04-13 22:00:00 12.8 15 Noroeste 19 Noroeste 0 922.7 0.8 24
2019-04-13 21:00:00 13.4 14 Noroeste 24 Oeste 0 922.5 0.8 23
2019-04-13 20:00:00 15.4 20 Oeste 37 Sudoeste 0 922.1 0.6 19
2019-04-13 19:00:00 17.7 28 Sudoeste 46 Sudoeste 0 921.9 0.2 16
2019-04-13 18:00:00 18.8 30 Oeste 51 Sudoeste 0 921.7 -0.4 15
2019-04-13 17:00:00 19.7 29 Sudoeste 46 Sudoeste 0 921.5 -1.4 16
2019-04-13 16:00:00 19.5 27 Sudoeste 44 Sudeste 0 921.7 -1.9 12
2019-04-13 15:00:00 20.7 23 Sur 33 Sur 0 922.1 -2.2 13
2019-04-13 14:00:00 18 9 Sudeste 19 Sudeste 0 922.9 -1.6 13
2019-04-13 13:00:00 16.4 10 Sur 16 Sur 0 923.6 -0.9 13
2019-04-13 12:00:00 14.3 8 Sur 14 Sur 0 924.3 -0.1 29
2019-04-13 11:00:00 11.3 6 Sur 10 Sur 0 924.5 0.5 33
2019-04-13 10:00:00 8.6 5 Sur 8 Sur 0 924.5 0.8 38
2019-04-13 09:00:00 7.2 3 Sur 6 Sudeste 0 924.4 1 31
2019-04-13 08:00:00 5.9 3 Este 5 Oeste 0 924 0.7 34
2019-04-13 07:00:00 3.9 2 Oeste 8 Norte 0 923.7 0.3 34
2019-04-13 06:00:00 3.7 3 Noroeste 11 Noroeste 0 923.4 -0.1 31
2019-04-13 05:00:00 3.2 7 Norte 9 Norte 0 923.3 -0.5 32
2019-04-13 04:00:00 5.2 4 Noroeste 10 Oeste 0 923.4 -0.6 26
2019-04-13 03:00:00 6.6 6 Oeste 22 Norte 0 923.5 0 27
2019-04-13 02:00:00 7.1 15 Norte 21 Norte 0 923.8 0.3 24
2019-04-13 01:00:00 7.9 5 Norte 33 Norte 0 924 0.9 25
2019-04-13 00:00:00 9.6 17 Nordeste 28 Norte 0 923.5 1.3 24
2019-04-12 23:00:00 9.8 17 Norte 29 Nordeste 0 923.5 1.9 26
2019-04-12 22:00:00 10.3 15 Nordeste 39 Nordeste 0 923.1 1.8 26
2019-04-12 21:00:00 11.4 21 Nordeste 39 Nordeste 0 922.2 1.1 20
2019-04-12 20:00:00 12.5 16 Nordeste 41 Nordeste 0 921.6 1 20
2019-04-12 19:00:00 14.8 20 Nordeste 42 Este 0 921.3 0.5 16
2019-04-12 18:00:00 16 24 Este 43 Nordeste 0 921.1 0 14
2019-04-12 17:00:00 17.1 22 Este 36 Este 0 920.6 -0.8 13
2019-04-12 16:00:00 18 16 Este 28 Este 0 920.8 -1 12
2019-04-12 15:00:00 17.7 14 Este 26 Sur 0 921.1 -1 15
2019-04-12 14:00:00 18 14 Sudeste 26 Sudeste 0 921.4 -0.9 16
2019-04-12 13:00:00 16.3 10 Sur 21 Sur 0 921.8 -0.2 21
2019-04-12 12:00:00 14.9 12 Sur 18 Sur 0 922.1 0.1 26
2019-04-12 11:00:00 13.3 5 Sur 15 Sur 0 922.3 0.2 36
2019-04-12 10:00:00 10.8 5 Sur 8 Sur 0 922 0.4 41
2019-04-12 09:00:00 8.5 4 Sudoeste 12 Noroeste 0 922 0.4 60
2019-04-12 08:00:00 5.3 5 Noroeste 10 Noroeste 0 922.1 0.6 57
2019-04-12 07:00:00 4.8 6 Noroeste 11 Norte 0 921.6 0 61
2019-04-12 06:00:00 4.8 8 Norte 15 Noroeste 0 921.6 -0.1 61
2019-04-12 05:00:00 4.9 5 Norte 16 Nordeste 0 921.5 -0.7 62
2019-04-12 04:00:00 5.6 6 Noroeste 12 Norte 0 921.6 -0.4 61
2019-04-12 03:00:00 5.8 4 Norte 10 Oeste 0 921.7 -0.3 60
2019-04-12 02:00:00 7 4 Sudoeste 11 Oeste 0 922.2 0.3 56
2019-04-12 01:00:00 8 4 Sur 15 Nordeste 0 922 0.2 51
2019-04-12 00:00:00 7.9 10 Nordeste 18 Nordeste 0 922 0.8 51
2019-04-11 23:00:00 8.3 9 Norte 14 Norte 0 921.9 1.5 48
2019-04-11 22:00:00 9.4 7 Nordeste 23 Norte 0 921.8 1.8 43
2019-04-11 21:00:00 9.8 8 Norte 26 Norte 0 921.2 1.3 40
2019-04-11 20:00:00 10.5 15 Noroeste 25 Noroeste 0 920.4 0.8 40
2019-04-11 19:00:00 12.2 14 Noroeste 28 Noroeste 0 920 0.3 34
2019-04-11 18:00:00 13.4 16 Noroeste 33 Noroeste 0 919.9 -0.1 32
2019-04-11 17:00:00 14.4 15 Noroeste 30 Noroeste 0 919.6 -0.7 29
2019-04-11 16:00:00 14.1 14 Norte 27 Norte 0 919.7 -0.9 27
2019-04-11 15:00:00 14.6 5 Sur 15 Este 0 920 -0.6 25
2019-04-11 14:00:00 13.7 8 Nordeste 23 Nordeste 0 920.3 -0.5 24
2019-04-11 13:00:00 12.4 12 Nordeste 23 Nordeste 0 920.6 0.1 25
2019-04-11 12:00:00 13.4 10 Sur 19 Sudoeste 0 920.6 0.2 31
2019-04-11 11:00:00 11.4 6 Sur 16 Nordeste 0 920.8 0.5 43
2019-04-11 10:00:00 10.1 6 Sur 15 Nordeste 0 920.5 0.6 51
2019-04-11 09:00:00 9.8 9 Nordeste 18 Nordeste 0 920.4 0.5 35
2019-04-11 08:00:00 6.4 10 Norte 17 Norte 0 920.3 0.3 51
2019-04-11 07:00:00 4 6 Norte 13 Norte 0 919.9 0 55
2019-04-11 06:00:00 3.9 7 Norte 9 Norte 0 919.9 -0.1 58
2019-04-11 05:00:00 5.3 6 Noroeste 14 Noroeste 0 920 -0.2 54
2019-04-11 04:00:00 4.8 3 Sudeste 11 Noroeste 0 919.9 -0.2 55
2019-04-11 03:00:00 5.3 3 Sudeste 13 Noroeste 0 920 0 52
2019-04-11 02:00:00 5.8 3 Noroeste 10 Noroeste 0 920.2 0.4 50
2019-04-11 01:00:00 6.3 3 Sur 10 Oeste 0 920.1 0.4 46
2019-04-11 00:00:00 7.7 3 Sudoeste 19 Noroeste 0 920 1.1 42
2019-04-10 23:00:00 7.2 15 Noroeste 18 Noroeste 0 919.8 1.8 43
2019-04-10 22:00:00 8.2 7 Norte 20 Norte 0 919.7 2.4 41
2019-04-10 21:00:00 9.5 13 Norte 27 Norte 0 918.9 2.2 37
2019-04-10 20:00:00 10.5 15 Nordeste 28 Nordeste 0 918 1.4 41
2019-04-10 19:00:00 12.9 8 Nordeste 24 Norte 0 917.3 0.9 29
2019-04-10 18:00:00 13.5 20 Norte 32 Noroeste 0 916.7 0.1 26
2019-04-10 17:00:00 13.8 10 Oeste 28 Sudoeste 0 916.6 -0.2 44
2019-04-10 16:00:00 14.1 14 Sudoeste 21 Sudoeste 0 916.4 -0.4 38
2019-04-10 15:00:00 13.4 11 Sur 19 Sur 0 916.6 -0.5 41
2019-04-10 14:00:00 12.9 9 Sur 16 Sudeste 0.2 916.8 -0.4 51
2019-04-10 13:00:00 13.5 10 Sur 18 Sur 0 916.8 -0.2 60
2019-04-10 12:00:00 11.5 6 Sudoeste 14 Sur 0 917.1 0.1 78
2019-04-10 11:00:00 7.5 5 Sur 9 Sur 0 917.2 0.5 94
2019-04-10 10:00:00 5.3 3 Sur 8 Sur 0 917 0.6 99
2019-04-10 09:00:00 3.8 2 Sur 7 Sudoeste 0 917 0.9 98
2019-04-10 08:00:00 2.9 4 Sudoeste 6 Sur 0 916.7 0.6 97
2019-04-10 07:00:00 2 0 Calma 5 Sudoeste 0 916.4 0.2 96
2019-04-10 06:00:00 3 0 Calma 5 Norte 0 916.1 -0.2 96
2019-04-10 05:00:00 3.3 2 Sudoeste 7 Noroeste 0 916.1 -0.5 94
2019-04-10 04:00:00 3.1 6 Nordeste 7 Norte 0 916.2 -0.6 94
2019-04-10 03:00:00 3.9 4 Norte 9 Oeste 0 916.3 -0.6 89
2019-04-10 02:00:00 3.6 0 Calma 9 Norte 0 916.6 -0.7 91
2019-04-10 01:00:00 3.5 6 Norte 10 Norte 0 916.8 -0.4 91
2019-04-10 00:00:00 5 2 Sudoeste 11 Noroeste 0 916.9 0.1 87
2019-04-09 23:00:00 5.3 8 Oeste 21 Noroeste 0.2 917.3 1 92
2019-04-09 22:00:00 5.2 21 Noroeste 38 Noroeste 1.8 917.2 1.5 84
2019-04-09 21:00:00 6 19 Norte 27 Norte 1 916.8 1.2 82
2019-04-09 20:00:00 6.1 8 Norte 12 Sur 0.2 916.3 1 89
2019-04-09 19:00:00 6.3 11 Nordeste 17 Norte 0.6 915.7 1 80
2019-04-09 18:00:00 6.9 9 Noroeste 19 Sudoeste 0.2 915.6 0.4 80
2019-04-09 17:00:00 9.3 11 Oeste 28 Norte 0 915.3 0.4 61
2019-04-09 16:00:00 10 21 Norte 40 Norte 0 914.7 -0.6 51
2019-04-09 15:00:00 11.2 16 Nordeste 40 Nordeste 0 915.2 -0.6 49
2019-04-09 14:00:00 14.4 22 Sudoeste 36 Sudoeste 0 914.9 -1.3 32
2019-04-09 13:00:00 13.6 17 Sur 30 Sur 0 915.3 -1 42
2019-04-09 12:00:00 13.7 11 Sur 25 Sur 0 915.8 -0.8 49
2019-04-09 11:00:00 12.4 8 Sur 20 Sur 0 916.2 -0.5 63
2019-04-09 10:00:00 9.7 7 Sur 13 Sur 0 916.3 -0.3 70
2019-04-09 09:00:00 8.3 6 Sur 16 Oeste 0 916.6 0 77
2019-04-09 08:00:00 7 2 Este 6 Sudoeste 0 916.7 0.1 84
2019-04-09 07:00:00 5.1 2 Norte 13 Sudoeste 0 916.6 0 84
2019-04-09 06:00:00 6.3 5 Oeste 12 Oeste 0 916.6 -0.2 80
2019-04-09 05:00:00 5.9 6 Oeste 10 Norte 0 916.6 -0.4 81
2019-04-09 04:00:00 6.8 5 Sudoeste 15 Sudeste 0 916.6 -0.8 83
2019-04-09 03:00:00 7.9 4 Sudoeste 12 Sudoeste 0.2 916.8 -0.6 78
2019-04-09 02:00:00 8.5 2 Oeste 6 Noroeste 0 917 -0.7 68
2019-04-09 01:00:00 8.5 2 Este 10 Norte 0 917.4 0.1 69
2019-04-09 00:00:00 8.8 5 Norte 12 Norte 0 917.4 0.3 67
2019-04-08 23:00:00 8.7 6 Norte 21 Noroeste 0 917.7 1.1 69
2019-04-08 22:00:00 10.9 22 Oeste 33 Oeste 0 917.3 0.8 61
2019-04-08 21:00:00 11.4 13 Oeste 25 Oeste 0 917.1 0.7 59
2019-04-08 20:00:00 12.7 14 Oeste 31 Oeste 0 916.6 -0.1 49
2019-04-08 19:00:00 14.8 13 Sudoeste 33 Oeste 0 916.5 -0.4 45
2019-04-08 18:00:00 15.5 11 Oeste 35 Sudoeste 0 916.4 -0.8 42
2019-04-08 17:00:00 16.5 22 Sudoeste 33 Sudoeste 0 916.7 -1 39
2019-04-08 16:00:00 17.1 19 Sudoeste 36 Sudoeste 0 916.9 -1.1 39
2019-04-08 15:00:00 15.4 16 Sur 27 Sudoeste 0 917.2 -1 42
2019-04-08 14:00:00 13.8 13 Sudoeste 27 Sudeste 0 917.7 -0.6 46
2019-04-08 13:00:00 12.3 8 Sudeste 20 Sur 0 918 -0.5 52
2019-04-08 12:00:00 10.9 8 Sur 16 Sur 0 918.2 -0.5 58
2019-04-08 11:00:00 9.8 7 Sur 12 Sur 0 918.3 -0.2 59
2019-04-08 10:00:00 7 6 Sur 10 Sur 0 918.5 0.1 77
2019-04-08 09:00:00 5.3 5 Sudoeste 8 Norte 0 918.7 0.2 82
2019-04-08 08:00:00 4.1 4 Noroeste 7 Nordeste 0 918.5 -0.2 90
2019-04-08 07:00:00 3.4 2 Nordeste 6 Sudoeste 0 918.4 -0.4 88
2019-04-08 06:00:00 3.9 3 Norte 6 Sur 0 918.5 -0.4 85
2019-04-08 05:00:00 4.4 3 Sudoeste 9 Norte 0 918.7 -0.4 80
2019-04-08 04:00:00 4.1 2 Oeste 12 Noroeste 0 918.8 -0.5 81
2019-04-08 03:00:00 3.7 4 Noroeste 12 Noroeste 0 918.9 -0.3 79
2019-04-08 02:00:00 4.5 10 Noroeste 12 Noroeste 0 919.1 -0.1 79
2019-04-08 01:00:00 5.3 5 Oeste 11 Norte 0 919.3 0.3 75
2019-04-08 00:00:00 5 7 Norte 10 Norte 0 919.2 0.9 76
2019-04-07 23:00:00 6.6 0 Calma 8 Noroeste 0 919.2 1.7 69
2019-04-07 22:00:00 6.6 6 Noroeste 8 Noroeste 0 919 2.4 69
2019-04-07 21:00:00 8 2 Norte 9 Sur 0 918.3 2.6 62
2019-04-07 20:00:00 9.4 3 Sudeste 14 Este 0 917.5 2.1 54
2019-04-07 19:00:00 11.5 10 Este 21 Nordeste 0 916.6 1.9 45
2019-04-07 18:00:00 13.9 13 Sudoeste 27 Oeste 0 915.7 1.1 35
2019-04-07 17:00:00 12.6 6 Sudoeste 32 Oeste 0 915.4 1.4 44
2019-04-07 16:00:00 10.9 8 Este 20 Sudeste 0 914.7 0.7 47
2019-04-07 15:00:00 13 12 Sudoeste 24 Sudoeste 0 914.6 0.8 38
2019-04-07 14:00:00 10.6 4 Nordeste 22 Sudeste 0 914 0.7 58
2019-04-07 13:00:00 11.2 8 Sur 19 Sudeste 0 914 1.3 64
2019-04-07 12:00:00 9.1 8 Sur 15 Sur 0 913.8 1.8 74
2019-04-07 11:00:00 6.5 4 Sudoeste 12 Sudoeste 0 913.3 2 86
2019-04-07 10:00:00 5.2 5 Sudeste 12 Sur 0 912.7 1.9 90
2019-04-07 09:00:00 4.2 4 Sudeste 7 Sur 0 912 1.7 93
2019-04-07 08:00:00 1.8 3 Noroeste 8 Oeste 0 911.3 1.4 96
2019-04-07 07:00:00 1.4 7 Nordeste 10 Norte 0 910.8 0.8 97
2019-04-07 06:00:00 0.6 2 Norte 8 Sudoeste 0 910.3 0.2 96
2019-04-07 05:00:00 1.4 3 Nordeste 8 Noroeste 0 909.9 -0.6 96
2019-04-07 04:00:00 2.4 5 Oeste 9 Oeste 0 910 -0.8 96
2019-04-07 03:00:00 2.3 2 Sudoeste 6 Sudoeste 0 910.1 -0.8 95
2019-04-07 02:00:00 2.6 3 Oeste 8 Sudeste 0 910.5 -0.6 96
2019-04-07 01:00:00 2.8 3 Norte 10 Norte 0.6 910.8 0.1 94
2019-04-07 00:00:00 3 3 Nordeste 9 Nordeste 0 910.9 0.4 93
2019-04-06 23:00:00 2.9 2 Sur 13 Norte 0 911.1 1.2 93
2019-04-06 22:00:00 2.3 6 Nordeste 13 Nordeste 0 910.7 1.3 93
2019-04-06 21:00:00 2.5 8 Nordeste 21 Nordeste 0 910.5 2 93
2019-04-06 20:00:00 3 13 Nordeste 43 Noroeste 0.6 909.9 1.5 89
2019-04-06 19:00:00 3.3 26 Noroeste 36 Noroeste 5.2 909.4 0.9 84
2019-04-06 18:00:00 7.6 11 Sur 22 Sur 0 908.5 -0.3 69
2019-04-06 17:00:00 8.8 5 Norte 20 Sudoeste 0 908.4 -0.1 56
2019-04-06 16:00:00 9.6 10 Oeste 25 Noroeste 0 908.5 0 56
2019-04-06 15:00:00 6.3 12 Noroeste 30 Oeste 0 908.8 0.5 78
2019-04-06 14:00:00 6.4 8 Sudoeste 26 Oeste 3 908.5 0.9 84
2019-04-06 13:00:00 4.7 8 Sur 17 Sur 0 908.5 1.8 96
2019-04-06 12:00:00 3.7 9 Sur 22 Sudoeste 0.6 908.3 2.2 95
2019-04-06 11:00:00 2.9 14 Sudoeste 27 Sudoeste 0.6 907.6 1.7 90
2019-04-06 10:00:00 3.2 15 Sudoeste 24 Sudoeste 0.2 906.7 1.4 91
2019-04-06 09:00:00 2.9 10 Sudoeste 22 Sudoeste 0 906.1 1 94
2019-04-06 08:00:00 2.6 9 Sudoeste 21 Oeste 0.2 905.9 0.6 96
2019-04-06 07:00:00 2.9 7 Sur 9 Sur 0 905.3 0.1 96
2019-04-06 06:00:00 2.7 3 Norte 9 Noroeste 0 905.1 -0.2 96
2019-04-06 05:00:00 2.8 4 Sur 13 Norte 0 905.3 0.1 94
2019-04-06 04:00:00 2.4 9 Norte 12 Norte 3.6 905.2 -0.3 91
2019-04-06 03:00:00 3.8 5 Sudoeste 9 Noroeste 1.6 905.3 -0.7 92
2019-04-06 02:00:00 3.9 6 Norte 13 Norte 0.4 905.2 -1.1 87
2019-04-06 01:00:00 3.9 9 Norte 13 Nordeste 1.2 905.5 -1.2 89
2019-04-06 00:00:00 4.8 3 Sudoeste 15 Este 1.4 906 -0.5 93
2019-04-05 23:00:00 5.4 6 Este 13 Este 0.4 906.3 -0.1 91
2019-04-05 22:00:00 5.6 6 Este 16 Sudeste 0 906.7 0.2 87
2019-04-05 21:00:00 5.8 3 Sudeste 32 Sur 0.6 906.5 0.2 88
2019-04-05 20:00:00 6.8 14 Sudeste 31 Sudeste 1 906.4 -0.2 82
2019-04-05 19:00:00 8.4 16 Sudeste 28 Sudeste 0 906.5 -0.8 69
2019-04-05 18:00:00 9.1 14 Sudeste 30 Sudeste 0 906.3 -1.6 67
2019-04-05 17:00:00 10.4 4 Sudeste 15 Este 0 906.6 -1.9 50
2019-04-05 16:00:00 10 5 Este 16 Sudeste 0 907.3 -1.6 53
2019-04-05 15:00:00 8.7 8 Norte 13 Norte 0 907.9 -1.7 61
2019-04-05 14:00:00 7.2 5 Sur 18 Sur 0 908.5 -1.2 64
2019-04-05 13:00:00 8.1 6 Sur 14 Sur 0 908.9 -0.5 62
2019-04-05 12:00:00 6.1 6 Sur 12 Este 0 909.6 0.5 74
2019-04-05 11:00:00 5.4 3 Oeste 10 Norte 0 909.7 0.4 63
2019-04-05 10:00:00 3.4 4 Sudoeste 9 Sur 0 909.4 0.2 60
2019-04-05 09:00:00 3.9 8 Norte 10 Norte 0 909.1 0 56
2019-04-05 08:00:00 2.4 3 Sudoeste 7 Norte 0 909.3 -0.2 62
2019-04-05 07:00:00 2.6 4 Oeste 7 Sudoeste 0 909.2 -0.2 58
2019-04-05 06:00:00 2.9 9 Norte 13 Norte 0 909.1 -0.6 56
2019-04-05 05:00:00 2.6 7 Noroeste 13 Norte 0 909.5 -0.3 59
2019-04-05 04:00:00 3.3 11 Norte 14 Norte 0 909.4 -0.9 54
2019-04-05 03:00:00 3.5 11 Norte 15 Norte 0 909.7 -0.7 50
2019-04-05 02:00:00 3.2 6 Noroeste 15 Norte 0 909.8 -0.3 52
2019-04-05 01:00:00 3.6 6 Noroeste 14 Noroeste 0 910.3 -0.1 49
2019-04-05 00:00:00 3.3 9 Noroeste 11 Noroeste 0 910.4 0.4 52
2019-04-04 23:00:00 4.8 6 Nordeste 24 Norte 0 910.1 0.8 45
2019-04-04 22:00:00 5.3 9 Norte 22 Sudoeste 0 910.4 1.3 41
2019-04-04 21:00:00 6.6 10 Oeste 26 Oeste 0 910 1.1 38
2019-04-04 20:00:00 7.7 15 Oeste 30 Sudoeste 0 909.3 0.7 36
2019-04-04 19:00:00 10.1 21 Sudoeste 36 Sudoeste 0 909.1 0.6 30
2019-04-04 18:00:00 10 14 Sudoeste 31 Sudoeste 0 908.9 0.2 30
2019-04-04 17:00:00 10.6 20 Sudoeste 36 Sur 0 908.6 -0.5 27
2019-04-04 16:00:00 11.9 21 Sudoeste 36 Sur 0 908.5 -0.9 24
2019-04-04 15:00:00 11.8 20 Sur 42 Sur 0 908.7 -1 24
2019-04-04 14:00:00 12.3 17 Sur 32 Sur 0 909.1 -0.5 28
2019-04-04 13:00:00 10.3 17 Sur 31 Sudoeste 0 909.4 -0.1 28
2019-04-04 12:00:00 8.1 12 Sur 22 Sur 0 909.7 0.5 48
2019-04-04 11:00:00 5.5 10 Sur 17 Sur 0 909.6 1 57
2019-04-04 10:00:00 3.1 5 Sur 14 Este 0 909.5 1.7 69
2019-04-04 09:00:00 1.4 4 Sudoeste 7 Sur 0 909.2 1.7 72
2019-04-04 08:00:00 -0.6 4 Sur 6 Sudoeste 0 908.6 1 77
2019-04-04 07:00:00 -1.2 5 Oeste 8 Oeste 0 907.8 0.3 77
2019-04-04 06:00:00 -1 4 Norte 8 Norte 0 907.5 -0.1 78
2019-04-04 05:00:00 -1.4 7 Norte 12 Este 0 907.6 -0.3 79
2019-04-04 04:00:00 -0.4 5 Nordeste 16 Norte 0 907.5 -0.9 76
2019-04-04 03:00:00 0.1 7 Noroeste 23 Noroeste 0 907.6 -0.7 69
2019-04-04 02:00:00 0.9 10 Oeste 17 Nordeste 0 907.9 -0.5 65
2019-04-04 01:00:00 2.7 5 Sur 37 Oeste 0 908.4 0.1 56
2019-04-04 00:00:00 3.3 26 Oeste 46 Oeste 0 908.3 -0.1 57
2019-04-03 23:00:00 4.3 38 Oeste 46 Oeste 0 908.4 0.1 54
2019-04-03 22:00:00 4 10 Noroeste 29 Oeste 0 908.3 -0.3 56
2019-04-03 21:00:00 4.9 9 Oeste 29 Sudoeste 0 908.4 -0.4 71
2019-04-03 20:00:00 5.8 17 Sudoeste 30 Sudoeste 0 908.3 -1.3 70
2019-04-03 19:00:00 7 14 Sur 22 Sudoeste 0 908.6 -1.2 76
2019-04-03 18:00:00 7.6 8 Sur 18 Sudoeste 0 908.8 -1.8 78
2019-04-03 17:00:00 6.7 15 Sudoeste 24 Sudoeste 0.2 909.6 -1.3 83
2019-04-03 16:00:00 6 15 Oeste 33 Noroeste 2.6 909.8 -1.4 80
2019-04-03 15:00:00 6 20 Noroeste 34 Norte 1 910.6 -1.5 80
2019-04-03 14:00:00 7.4 14 Noroeste 39 Sudoeste 0.2 910.9 -1.9 74
2019-04-03 13:00:00 10.2 18 Sudoeste 37 Oeste 0 911.2 -1.9 62
2019-04-03 12:00:00 9.3 21 Sudoeste 30 Oeste 0 912.1 -1.6 69
2019-04-03 11:00:00 9.2 17 Sudoeste 25 Oeste 0 912.8 -1 76
2019-04-03 10:00:00 8.4 6 Sur 10 Sur 0 913.1 -0.9 90
2019-04-03 09:00:00 7.6 0 Calma 6 Sur 0 913.7 -0.9 91
2019-04-03 08:00:00 7.4 4 Sur 8 Noroeste 1 913.8 -1.5 90
2019-04-03 07:00:00 7.6 5 Oeste 10 Oeste 0.4 914 -2.3 85
2019-04-03 06:00:00 7.7 2 Sudoeste 8 Sur 0 914.6 -2.4 81
2019-04-03 05:00:00 7.8 4 Oeste 11 Norte 0 915.3 -2.5 83
2019-04-03 04:00:00 8.4 10 Noroeste 14 Noroeste 0.2 916.3 -2 78
2019-04-03 03:00:00 8.5 4 Nordeste 8 Sudoeste 0 917 -1.5 75
2019-04-03 02:00:00 9.3 3 Sudoeste 10 Oeste 0 917.8 -0.8 68
2019-04-03 01:00:00 9.4 5 Sudoeste 10 Sudeste 0 918.3 -0.5 61
2019-04-03 00:00:00 8.9 6 Noroeste 11 Norte 0 918.5 0.2 61
2019-04-02 23:00:00 9 4 Noroeste 8 Sudoeste 0 918.6 0.5 60
2019-04-02 22:00:00 9.6 4 Oeste 13 Oeste 0 918.8 0.7 59
2019-04-02 21:00:00 10.9 5 Sudoeste 8 Sudoeste 0 918.3 0.1 57
2019-04-02 20:00:00 11.4 2 Oeste 12 Oeste 0 918.1 -0.1 55
2019-04-02 19:00:00 13.1 10 Sudoeste 24 Oeste 0 918.1 -0.5 53
2019-04-02 18:00:00 11.9 20 Noroeste 36 Sudoeste 0.4 918.2 -1.4 65
2019-04-02 17:00:00 16.8 15 Oeste 44 Sudoeste 0 918.2 -1.3 32
2019-04-02 16:00:00 15.5 17 Oeste 36 Sudoeste 0 918.6 -1.8 32
2019-04-02 15:00:00 13.5 31 Oeste 50 Oeste 0 919.6 -1.3 35
2019-04-02 14:00:00 17.9 24 Sudoeste 36 Sudoeste 0 919.5 -1.8 36
2019-04-02 13:00:00 16.6 22 Sudoeste 38 Sudoeste 0 920.4 -0.9 33
2019-04-02 12:00:00 14.8 11 Sur 19 Sur 0 920.9 -0.4 56
2019-04-02 11:00:00 11.7 8 Sur 14 Sur 0 921.3 0 65
2019-04-02 10:00:00 11 6 Sur 10 Sur 0 921.3 0.3 69
2019-04-02 09:00:00 8.5 3 Sur 5 Sudoeste 0 921.3 0.4 77
2019-04-02 08:00:00 7.6 3 Noroeste 5 Noroeste 0 921.3 0 78
2019-04-02 07:00:00 7.6 2 Sudoeste 5 Sudeste 0 921 -0.5 76
2019-04-02 06:00:00 7.7 2 Sudoeste 4 Sur 0 920.9 -1 75
2019-04-02 05:00:00 7.7 0 Calma 6 Norte 0 921.3 -0.9 74
2019-04-02 04:00:00 8.7 3 Noroeste 4 Sudoeste 0 921.5 -0.8 70
2019-04-02 03:00:00 8.5 3 Norte 5 Norte 0 921.9 -0.6 72
2019-04-02 02:00:00 9.1 2 Noroeste 4 Oeste 0 922.2 -0.2 68
2019-04-02 01:00:00 9.4 2 Oeste 5 Nordeste 0 922.3 0.1 66
2019-04-02 00:00:00 9.3 2 Nordeste 5 Nordeste 0 922.5 0.7 66
2019-04-01 23:00:00 9.6 2 Nordeste 10 Nordeste 0 922.4 1.3 65
2019-04-01 22:00:00 10.5 9 Norte 20 Norte 0 922.2 1.5 62
2019-04-01 21:00:00 10.4 5 Norte 18 Noroeste 0 921.8 1.3 63
2019-04-01 20:00:00 11.8 13 Noroeste 28 Oeste 0 921.1 0.6 55
2019-04-01 19:00:00 14.3 15 Oeste 28 Oeste 0 920.7 0.3 47
2019-04-01 18:00:00 15.8 19 Oeste 34 Sudoeste 0 920.5 -0.1 43
2019-04-01 17:00:00 15.8 18 Sudoeste 31 Sudoeste 0 920.5 -0.8 43
2019-04-01 16:00:00 15.4 19 Sudoeste 33 Sudoeste 0 920.4 -1.4 43
2019-04-01 15:00:00 18.3 14 Sur 30 Sur 0 920.6 -1.4 35
2019-04-01 14:00:00 16.6 16 Sur 29 Sur 0 921.3 -0.9 41
2019-04-01 13:00:00 15.5 12 Sur 18 Sur 0 921.8 -0.1 46
2019-04-01 12:00:00 14.1 8 Sur 15 Sur 0 922 0.2 51
2019-04-01 11:00:00 12.2 9 Sur 15 Sur 0 922.2 0.7 62
2019-04-01 10:00:00 9.5 3 Sudoeste 6 Sur 0 921.9 0.7 71
2019-04-01 09:00:00 8.3 3 Noroeste 5 Norte 0 921.8 0.8 73
2019-04-01 08:00:00 7.1 2 Sur 5 Sur 0 921.5 0.4 77
2019-04-01 07:00:00 7.5 6 Noroeste 8 Noroeste 0 921.2 -0.3 76
2019-04-01 06:00:00 7.3 4 Noroeste 8 Norte 0 921 -0.6 77
2019-04-01 05:00:00 7.9 4 Oeste 4 Noroeste 0 921.1 -0.8 75
2019-04-01 04:00:00 8.1 0 Calma 3 Sudeste 0 921.5 -0.5 69
2019-04-01 03:00:00 8.7 2 Sudoeste 9 Noroeste 0 921.6 -0.6 66
2019-04-01 02:00:00 8.2 8 Noroeste 10 Noroeste 0 921.9 -0.4 69
2019-04-01 01:00:00 8.2 5 Norte 9 Norte 0 922 -0.3 70
2019-04-01 00:00:00 7.9 7 Noroeste 9 Noroeste 0 922.2 0.3 72
2019-03-31 23:00:00 8.7 6 Norte 9 Norte 0 922.3 0.7 69
2019-03-31 22:00:00 9.8 6 Este 11 Este 0 922.3 0.9 64
2019-03-31 21:00:00 10.7 6 Sudeste 14 Sudeste 0 921.9 0.5 61
2019-03-31 20:00:00 11.3 3 Sudeste 11 Sudoeste 0 921.6 0.1 55
2019-03-31 19:00:00 12.7 5 Sur 14 Sur 0 921.4 -0.5 47
2019-03-31 18:00:00 13.5 12 Sur 21 Sur 0 921.4 -1.1 46
2019-03-31 17:00:00 13.3 7 Sur 21 Sudeste 0 921.5 -1.5 44
2019-03-31 16:00:00 14.4 8 Sur 21 Sur 0 921.9 -1.6 40
2019-03-31 15:00:00 13.9 8 Sudoeste 20 Sur 0 922.5 -1.2 35
2019-03-31 14:00:00 14.3 12 Sur 19 Sur 0 923 -0.9 38
2019-03-31 13:00:00 12 9 Sur 16 Sur 0 923.5 -0.2 47
2019-03-31 12:00:00 10.3 7 Sur 13 Sur 0 923.7 0 58
2019-03-31 11:00:00 9.9 4 Sudoeste 10 Sur 0 923.9 0.3 55
2019-03-31 10:00:00 7.4 3 Sudoeste 10 Nordeste 0 923.7 0.2 67
2019-03-31 09:00:00 4.7 6 Noroeste 12 Norte 0 923.7 -0.2 77
2019-03-31 08:00:00 2.9 5 Oeste 7 Sudoeste 0 923.6 -0.9 83
2019-03-31 07:00:00 2.8 4 Noroeste 11 Norte 0 923.5 -1.6 83
2019-03-31 06:00:00 3.7 2 Sudeste 5 Norte 0 923.9 -1.5 77
2019-03-31 05:00:00 3.5 2 Sudeste 9 Norte 0 924.5 -1.5 84
2019-03-31 03:00:00 5.6 3 Oeste 8 Norte 0 925.4 -1.9 74
2019-03-31 01:00:00 4.9 7 Noroeste 10 Oeste 0 926 -1.3 78
2019-03-31 00:00:00 5.7 5 Oeste 7 Oeste 0 926.7 -0.2 76
2019-03-30 23:00:00 6 3 Noroeste 10 Norte 0 927.3 1.4 73
2019-03-30 22:00:00 7.2 5 Oeste 9 Sudeste 0 927.3 1.9 70
2019-03-30 21:00:00 8.7 5 Este 19 Sudeste 0 926.9 1.7 61
2019-03-30 20:00:00 9.7 5 Sudeste 14 Sudeste 0 925.9 0.6 45
2019-03-30 19:00:00 11.4 10 Sudeste 22 Sur 0 925.4 -0.4 38
2019-03-30 18:00:00 14.2 12 Sur 23 Sur 0 925.2 -1.1 33
2019-03-30 17:00:00 15.8 13 Sur 26 Sur 0 925.3 -1.8 30
2019-03-30 16:00:00 16.2 13 Sur 29 Sur 0 925.8 -1.8 27
2019-03-30 15:00:00 16.5 13 Sur 30 Sur 0 926.3 -1.8 31
2019-03-30 14:00:00 16.1 11 Sur 26 Sur 0 927.1 -1.7 28
2019-03-30 13:00:00 15.1 15 Sur 25 Sudeste 0 927.6 -1.7 33
2019-03-30 12:00:00 13.8 11 Sur 19 Sur 0 928.1 -1.4 42
2019-03-30 11:00:00 11.2 6 Sur 15 Sudoeste 0 928.8 -0.8 48
2019-03-30 10:00:00 8.5 7 Sur 13 Sur 0 929.3 -0.3 58
2019-03-30 09:00:00 6.9 6 Sur 10 Sur 0 929.5 -0.1 64
2019-03-30 08:00:00 5 2 Sudoeste 6 Noroeste 0 929.6 -0.1 69
2019-03-30 07:00:00 2.8 3 Noroeste 4 Sur 0 929.6 -0.4 77
2019-03-30 06:00:00 2.8 4 Sudoeste 8 Noroeste 0 929.6 -0.7 76
2019-03-30 05:00:00 3.5 0 Calma 4 Sudoeste 0 929.7 -1 72
2019-03-30 04:00:00 3.9 2 Este 3 Sudeste 0 930 -1.1 71
2019-03-30 03:00:00 4.6 0 Calma 10 Norte 0 930.3 -1.1 68
2019-03-30 02:00:00 4.2 9 Norte 10 Noroeste 0 930.7 -0.7 69
2019-03-30 01:00:00 4.1 10 Noroeste 13 Noroeste 0 931.1 -0.4 68
2019-03-30 00:00:00 5.8 4 Sudoeste 10 Oeste 0 931.4 -0.1 59
2019-03-29 23:00:00 6 4 Oeste 10 Norte 0 931.4 0.4 60
2019-03-29 22:00:00 6.5 3 Este 21 Sudeste 0 931.5 0.9 56
2019-03-29 21:00:00 8.2 7 Este 21 Este 0 931.5 1.1 55
2019-03-29 20:00:00 9.5 11 Sudeste 27 Sur 0 931 0.6 51
2019-03-29 19:00:00 10.2 6 Sudeste 21 Sudeste 0 930.6 -0.1 48
2019-03-29 18:00:00 12.3 16 Sudeste 24 Sudeste 0 930.4 -0.8 41
2019-03-29 17:00:00 13.6 10 Sur 17 Sur 0 930.4 -1.4 34
2019-03-29 16:00:00 13.8 5 Sudeste 17 Sur 0 930.7 -1.7 35
2019-03-29 15:00:00 13.6 8 Sudeste 21 Sudoeste 0 931.2 -1.6 35
2019-03-29 14:00:00 14.2 10 Sudoeste 27 Sur 0 931.8 -1.3 32
2019-03-29 13:00:00 14 10 Sur 20 Sur 0 932.4 -1 34
2019-03-29 12:00:00 13 8 Sur 17 Sur 0 932.8 -0.5 37
2019-03-29 11:00:00 12.6 6 Sur 14 Sur 0 933.1 -0.1 40
2019-03-29 10:00:00 9.9 3 Sudoeste 9 Sur 0 933.4 0.5 52
2019-03-29 09:00:00 9.2 4 Nordeste 11 Nordeste 0 933.3 0.5 49
2019-03-29 08:00:00 6.2 5 Norte 8 Norte 0 933.2 0.4 60
2019-03-29 07:00:00 4.8 2 Este 6 Sur 0 932.9 0.3 65
2019-03-29 06:00:00 4.3 3 Sudoeste 9 Norte 0 932.8 0.2 66
2019-03-29 05:00:00 5.4 3 Noroeste 7 Norte 0 932.8 0.3 60
2019-03-29 04:00:00 5 3 Oeste 12 Noroeste 0 932.6 -0.3 61
2019-03-29 03:00:00 4.6 9 Noroeste 12 Noroeste 0 932.6 -0.5 61
2019-03-29 02:00:00 6.1 2 Sur 16 Norte 0 932.5 -0.5 57
2019-03-29 01:00:00 6 2 Oeste 10 Noroeste 0 932.9 0.1 55
2019-03-29 00:00:00 6 4 Noroeste 7 Oeste 0 933.1 1 55
2019-03-28 23:00:00 6.3 4 Oeste 8 Sur 0 933 1.4 51
2019-03-28 22:00:00 7.3 4 Este 15 Noroeste 0 932.8 1.7 51
2019-03-28 21:00:00 8.9 15 Noroeste 19 Noroeste 0 932.1 1.4 48
2019-03-28 20:00:00 10.3 5 Sudoeste 11 Sudeste 0 931.6 1.2 42
2019-03-28 19:00:00 11.4 3 Este 16 Sudeste 0 931.1 0.6 40
2019-03-28 18:00:00 14.1 9 Sur 23 Sur 0 930.7 0.1 35
2019-03-28 17:00:00 15.8 15 Sur 28 Sur 0 930.4 -0.5 31
2019-03-28 16:00:00 16.7 19 Sur 30 Sur 0 930.5 -1.1 28
2019-03-28 15:00:00 17.2 16 Sur 34 Sur 0 930.6 -1.6 25
2019-03-28 14:00:00 17.1 15 Sur 28 Sur 0 930.9 -2 25
2019-03-28 13:00:00 16.3 17 Sur 29 Sur 0 931.6 -1.4 26
2019-03-28 12:00:00 14.4 10 Sur 20 Sur 0 932.2 -1 27
2019-03-28 11:00:00 12.2 8 Sur 17 Sur 0 932.9 -0.2 28
2019-03-28 10:00:00 10.1 6 Sur 12 Sur 0 933 0.1 40
2019-03-28 09:00:00 7.9 5 Sur 10 Sur 0 933.2 0.7 45
2019-03-28 08:00:00 7.1 3 Sur 5 Sur 0 933.1 0.7 41
2019-03-28 07:00:00 3.1 4 Norte 6 Norte 0 932.9 0.8 50
2019-03-28 06:00:00 4.4 0 Calma 11 Noroeste 0 932.5 0.3 45
2019-03-28 05:00:00 5.2 4 Noroeste 11 Noroeste 0 932.4 0.3 41
2019-03-28 04:00:00 4.8 5 Noroeste 6 Norte 0 932.1 -0.1 45
2019-03-28 03:00:00 5.8 2 Sudoeste 12 Norte 0 932.2 0.3 44
2019-03-28 02:00:00 5.8 9 Norte 11 Norte 0 932.1 0.5 40
2019-03-28 01:00:00 6.2 8 Norte 12 Norte 0 932.2 1.1 41
2019-03-28 00:00:00 7.1 6 Noroeste 21 Norte 0 931.9 1.1 38
2019-03-27 23:00:00 6 6 Norte 10 Norte 0 931.6 1.5 42
2019-03-27 22:00:00 8 9 Norte 15 Norte 0 931.1 1.8 38
2019-03-27 21:00:00 8.5 5 Norte 11 Norte 0 930.8 2.3 45
2019-03-27 20:00:00 9 9 Noroeste 11 Noroeste 0 930.1 2 44
2019-03-27 19:00:00 12 5 Sudeste 18 Sur 0 929.3 1.4 35
2019-03-27 18:00:00 15.1 13 Sur 24 Sur 0 928.5 0.3 31
2019-03-27 17:00:00 16.9 16 Sur 30 Sur 0 928.1 -0.1 28
2019-03-27 16:00:00 17.6 21 Sur 35 Sur 0 927.9 -0.8 23
2019-03-27 15:00:00 17.4 13 Sur 30 Sur 0 928.2 -0.9 23
2019-03-27 14:00:00 18.3 18 Sur 29 Sur 0 928.2 -1.3 15
2019-03-27 13:00:00 17 13 Sur 23 Sur 0 928.7 -1.3 18
2019-03-27 12:00:00 14.6 10 Sur 17 Sur 0 929.1 -1 23
2019-03-27 11:00:00 11.8 9 Sur 17 Sur 0 929.5 -0.6 23
2019-03-27 10:00:00 9 6 Sur 12 Sur 0 930 0.3 25
2019-03-27 09:00:00 7 5 Sur 8 Sur 0 930.1 0.7 31
2019-03-27 08:00:00 5.6 3 Sur 6 Sur 0 930.1 0.8 27
2019-03-27 07:00:00 2.8 3 Norte 7 Norte 0 929.7 0.7 27
2019-03-27 06:00:00 3.3 2 Oeste 7 Noroeste 0 929.4 0.2 27
2019-03-27 05:00:00 3.2 0 Calma 5 Sudeste 0 929.3 0 31
2019-03-27 04:00:00 4.5 3 Sudoeste 11 Noroeste 0 929 -0.4 25
2019-03-27 03:00:00 3.5 7 Noroeste 9 Sudoeste 0 929.2 0.1 26
2019-03-27 02:00:00 4.9 8 Noroeste 11 Norte 0 929.3 0.7 18
2019-03-27 01:00:00 5.8 4 Sudoeste 14 Norte 0 929.4 1 32
2019-03-27 00:00:00 6.7 4 Norte 20 Nordeste 0 929.1 0.8 14
2019-03-26 23:00:00 9 13 Norte 22 Nordeste 0 928.6 1.2 12
2019-03-26 22:00:00 9.4 13 Norte 22 Nordeste 0 928.4 1.7 11
2019-03-26 21:00:00 8.9 12 Norte 19 Norte 0 928.3 2.1 12
2019-03-26 20:00:00 10.2 9 Norte 24 Norte 0 927.4 1.4 10
2019-03-26 19:00:00 12.4 16 Nordeste 32 Este 0 926.7 0.4 9
2019-03-26 18:00:00 13.7 18 Nordeste 35 Este 0 926.2 0.2 9
2019-03-26 17:00:00 15.4 15 Nordeste 38 Este 0 926 -0.3 7
2019-03-26 16:00:00 16.4 17 Este 41 Nordeste 0 926.3 0 7
2019-03-26 15:00:00 16.3 22 Nordeste 43 Nordeste 0 926 -0.9 6
2019-03-26 14:00:00 16.8 22 Nordeste 46 Este 0 926.3 -1 5
2019-03-26 13:00:00 16.8 25 Este 44 Este 0 926.3 -1.2 4
2019-03-26 12:00:00 16.9 14 Este 29 Este 0 926.9 -0.5 6
2019-03-26 11:00:00 15.6 7 Sur 18 Sur 0 927.3 -0.7 7
2019-03-26 10:00:00 13.5 9 Sur 14 Sur 0 927.5 -0.2 12
2019-03-26 09:00:00 11.6 7 Sur 21 Norte 0 927.4 0.1 13
2019-03-26 08:00:00 9.6 6 Norte 13 Norte 0 928 1.5 11
2019-03-26 07:00:00 6.7 9 Nordeste 16 Nordeste 0 927.7 1.9 17
2019-03-26 06:00:00 6.5 11 Norte 39 Nordeste 0 927.3 1.6 24
2019-03-26 05:00:00 7.2 23 Nordeste 44 Nordeste 0 926.5 0.8 28
2019-03-26 04:00:00 7.5 23 Nordeste 39 Nordeste 0 925.8 -0.3 31
2019-03-26 03:00:00 7.7 18 Nordeste 37 Norte 0 925.7 -0.4 33
2019-03-26 02:00:00 8.1 17 Nordeste 34 Norte 0 925.7 -0.3 33
2019-03-26 01:00:00 8.8 19 Norte 37 Nordeste 0 926.1 0.3 33
2019-03-26 00:00:00 9.1 22 Nordeste 36 Nordeste 0 926.1 1.1 32
2019-03-25 23:00:00 9.2 16 Nordeste 31 Nordeste 0 926 1.5 34
2019-03-25 22:00:00 9.6 12 Nordeste 41 Nordeste 0 925.8 1.8 33
2019-03-25 21:00:00 10.9 21 Nordeste 39 Nordeste 0 925 1.3 30
2019-03-25 20:00:00 12 18 Nordeste 29 Nordeste 0 924.5 0.9 26
2019-03-25 19:00:00 13.6 13 Nordeste 30 Nordeste 0 924 0 19
2019-03-25 18:00:00 15.7 17 Nordeste 30 Nordeste 0 923.7 -0.1 15
2019-03-25 17:00:00 17.1 15 Nordeste 26 Nordeste 0 923.6 -0.8 14
2019-03-25 16:00:00 19.8 9 Norte 44 Sudoeste 0 924 -1.5 19
2019-03-25 15:00:00 19.5 31 Oeste 45 Sudoeste 0 923.8 -2.6 29
2019-03-25 14:00:00 20.3 22 Sudoeste 38 Sudoeste 0 924.4 -2.6 26
2019-03-25 13:00:00 19.8 14 Sur 26 Sur 0 925.5 -1.9 27
2019-03-25 12:00:00 17.6 10 Sur 19 Sur 0 926.4 -1.1 29
2019-03-25 11:00:00 15.7 8 Sur 14 Sur 0 927 -0.4 34
2019-03-25 10:00:00 13.7 5 Sur 12 Sur 0 927.4 0 44
2019-03-25 09:00:00 11.3 5 Sur 7 Sur 0 927.5 0.2 50
2019-03-25 08:00:00 9.7 3 Sur 5 Sur 0 927.4 0 51
2019-03-25 07:00:00 8.1 4 Oeste 7 Noroeste 0 927.4 -0.3 54
2019-03-25 06:00:00 8.2 4 Oeste 5 Noroeste 0 927.3 -1 53
2019-03-25 05:00:00 8.8 2 Noroeste 5 Sur 0 927.4 -1.2 52
2019-03-25 04:00:00 8.9 4 Sur 8 Norte 0 927.7 -1.1 52
2019-03-25 03:00:00 9.3 0 Calma 5 Sudoeste 0 928.3 -0.8 50
2019-03-25 02:00:00 11 2 Sudoeste 7 Sudeste 0 928.6 -0.4 44
2019-03-25 01:00:00 11.2 3 Sur 10 Noroeste 0 928.8 -0.3 43
2019-03-25 00:00:00 11.1 5 Noroeste 12 Noroeste 0 929.1 0.2 44